createdAt,value
2022-12-17T00:01:25.869Z,2.06
2022-12-17T00:03:21.604Z,2.06
2022-12-17T00:05:21.213Z,2.06
2022-12-17T00:07:21.150Z,2.06
2022-12-17T00:09:20.304Z,2.06
2022-12-17T00:11:21.037Z,2.06
2022-12-17T00:13:20.945Z,2.06
2022-12-17T00:15:21.017Z,2.06
2022-12-17T00:17:21.417Z,2.06
2022-12-17T00:19:21.190Z,2.06
2022-12-17T00:21:21.119Z,2.06
2022-12-17T00:23:21.115Z,2.06
2022-12-17T00:25:21.071Z,2.06
2022-12-17T00:27:21.107Z,2.06
2022-12-17T00:29:20.583Z,2.06
2022-12-17T00:31:21.161Z,2.06
2022-12-17T00:33:21.252Z,2.06
2022-12-17T00:35:21.146Z,2.06
2022-12-17T00:37:21.055Z,2.06
2022-12-17T00:39:20.084Z,2.06
2022-12-17T00:41:20.980Z,2.06
2022-12-17T00:43:21.016Z,2.06
2022-12-17T00:45:21.098Z,2.06
2022-12-17T00:47:21.114Z,2.06
2022-12-17T00:49:21.490Z,2.06
2022-12-17T00:51:20.234Z,2.06
2022-12-17T00:53:21.358Z,2.06
2022-12-17T00:55:20.757Z,2.06
2022-12-17T00:57:21.240Z,2.06
2022-12-17T00:59:21.182Z,0.51
2022-12-17T01:01:24.532Z,0.51
2022-12-17T01:03:21.566Z,0.51
2022-12-17T01:05:21.098Z,0.83
2022-12-17T01:07:21.172Z,0.83
2022-12-17T01:09:21.165Z,0.83
2022-12-17T01:11:20.371Z,0.83
2022-12-17T01:13:21.162Z,0.83
2022-12-17T01:15:21.097Z,0.83
2022-12-17T01:17:21.116Z,0.83
2022-12-17T01:19:20.423Z,0.83
2022-12-17T01:21:21.159Z,0.83
2022-12-17T01:23:19.925Z,0.83
2022-12-17T01:25:21.031Z,0.83
2022-12-17T01:27:20.975Z,0.83
2022-12-17T01:29:20.905Z,0.83
2022-12-17T01:31:20.181Z,0.83
2022-12-17T01:33:20.918Z,0.83
2022-12-17T01:35:20.123Z,0.83
2022-12-17T01:37:20.217Z,0.83
2022-12-17T01:39:20.494Z,0.83
2022-12-17T01:41:21.165Z,0.83
2022-12-17T01:43:20.117Z,0.83
2022-12-17T01:45:20.349Z,0.83
2022-12-17T01:47:20.952Z,0.83
2022-12-17T01:49:21.227Z,0.83
2022-12-17T01:51:20.370Z,0.83
2022-12-17T01:53:20.654Z,0.83
2022-12-17T01:55:20.926Z,0.83
2022-12-17T01:57:20.514Z,0.83
2022-12-17T01:59:20.718Z,0.83
2022-12-17T02:01:23.736Z,0.83
2022-12-17T02:03:22.021Z,0.83
2022-12-17T02:05:20.547Z,0.83
2022-12-17T02:07:21.220Z,0.83
2022-12-17T02:09:20.024Z,0.83
2022-12-17T02:11:20.902Z,0.45
2022-12-17T02:13:20.805Z,0.45
2022-12-17T02:15:20.148Z,0.45
2022-12-17T02:17:21.122Z,0.45
2022-12-17T02:19:20.872Z,0.45
2022-12-17T02:21:20.055Z,0.45
2022-12-17T02:23:20.303Z,0.45
2022-12-17T02:25:20.922Z,0.45
2022-12-17T02:27:20.309Z,0.45
2022-12-17T02:29:20.511Z,0.45
2022-12-17T02:31:20.970Z,0.45
2022-12-17T02:33:20.380Z,0.45
2022-12-17T02:35:20.588Z,0.45
2022-12-17T02:37:21.225Z,0.45
2022-12-17T02:39:20.034Z,0.45
2022-12-17T02:41:20.672Z,0.45
2022-12-17T02:43:21.121Z,0.45
2022-12-17T02:45:20.327Z,0.45
2022-12-17T02:47:21.180Z,0.45
2022-12-17T02:49:21.086Z,0.45
2022-12-17T02:51:20.470Z,0.45
2022-12-17T02:53:20.746Z,0.45
2022-12-17T02:55:20.170Z,0.45
2022-12-17T02:57:20.387Z,0.45
2022-12-17T02:59:20.492Z,0.45
2022-12-17T03:01:23.779Z,0.45
2022-12-17T03:03:22.456Z,0.45
2022-12-17T03:05:54.510Z,0.45
2022-12-17T03:07:20.788Z,0.45
2022-12-17T03:09:20.151Z,0.45
2022-12-17T03:11:20.807Z,0.45
2022-12-17T03:13:20.126Z,0.45
2022-12-17T03:15:20.823Z,0.45
2022-12-17T03:17:23.638Z,0.42
2022-12-17T03:19:21.263Z,0.42
2022-12-17T03:21:20.291Z,0.42
2022-12-17T03:23:20.788Z,0.75
2022-12-17T03:25:20.253Z,0.75
2022-12-17T03:27:20.691Z,0.75
2022-12-17T03:29:20.762Z,0.95
2022-12-17T03:31:23.483Z,0.95
2022-12-17T03:33:20.601Z,0.95
2022-12-17T03:35:20.856Z,0.95
2022-12-17T03:37:21.176Z,0.95
2022-12-17T03:39:20.785Z,0.95
2022-12-17T03:41:20.304Z,0.95
2022-12-17T03:43:21.340Z,0.95
2022-12-17T03:45:20.658Z,0.95
2022-12-17T03:47:20.737Z,0.95
2022-12-17T03:49:20.750Z,0.95
2022-12-17T03:51:20.982Z,0.95
2022-12-17T03:53:20.217Z,0.95
2022-12-17T03:55:20.725Z,0.95
2022-12-17T03:57:27.221Z,0.95
2022-12-17T03:59:19.969Z,0.95
2022-12-17T04:01:24.383Z,0.95
2022-12-17T04:03:22.407Z,0.95
2022-12-17T04:05:20.601Z,0.95
2022-12-17T04:07:20.448Z,0.95
2022-12-17T04:09:20.684Z,0.95
2022-12-17T04:11:21.035Z,0.95
2022-12-17T04:13:20.126Z,0.95
2022-12-17T04:15:20.686Z,0.95
2022-12-17T04:17:21.318Z,0.95
2022-12-17T04:19:20.301Z,0.95
2022-12-17T04:21:20.840Z,0.95
2022-12-17T04:23:20.054Z,0.95
2022-12-17T04:25:20.392Z,0.95
2022-12-17T04:27:21.274Z,0.95
2022-12-17T04:29:20.905Z,0.95
2022-12-17T04:31:22.046Z,0.95
2022-12-17T04:33:20.939Z,0.95
2022-12-17T04:35:21.002Z,0.95
2022-12-17T04:37:20.206Z,0.95
2022-12-17T04:39:20.555Z,0.95
2022-12-17T04:41:21.084Z,0.95
2022-12-17T04:43:20.133Z,0.95
2022-12-17T04:45:22.512Z,0.95
2022-12-17T04:47:21.618Z,0.95
2022-12-17T04:49:20.309Z,0.95
2022-12-17T04:51:20.619Z,0.95
2022-12-17T04:53:21.530Z,0.95
2022-12-17T04:55:20.266Z,0.95
2022-12-17T04:57:20.380Z,0.95
2022-12-17T04:59:20.630Z,0.95
2022-12-17T05:01:24.505Z,0.95
2022-12-17T05:03:28.296Z,0.95
2022-12-17T05:05:20.390Z,0.95
2022-12-17T05:07:20.562Z,0.95
2022-12-17T05:09:26.717Z,0.95
2022-12-17T05:11:20.255Z,0.95
2022-12-17T05:13:20.555Z,0.95
2022-12-17T05:15:20.667Z,0.95
2022-12-17T05:17:21.288Z,0.95
2022-12-17T05:19:20.431Z,0.95
2022-12-17T05:21:20.573Z,0.95
2022-12-17T05:23:20.897Z,0.95
2022-12-17T05:25:20.278Z,0.95
2022-12-17T05:27:20.514Z,0.95
2022-12-17T05:29:27.155Z,0.95
2022-12-17T05:31:21.597Z,0.95
2022-12-17T05:33:20.645Z,0.95
2022-12-17T05:35:20.842Z,0.95
2022-12-17T05:37:20.250Z,0.38
2022-12-17T05:39:20.650Z,0.38
2022-12-17T05:41:20.768Z,0.38
2022-12-17T05:43:20.905Z,0.38
2022-12-17T05:45:20.265Z,0.38
2022-12-17T05:47:21.266Z,0.38
2022-12-17T05:49:20.622Z,0.38
2022-12-17T05:51:21.556Z,0.38
2022-12-17T05:53:20.199Z,0.38
2022-12-17T05:55:20.446Z,0.38
2022-12-17T05:57:20.706Z,0.38
2022-12-17T05:59:20.818Z,0.38
2022-12-17T06:01:26.096Z,0.38
2022-12-17T06:03:21.729Z,0.38
2022-12-17T06:05:25.145Z,0.38
2022-12-17T06:07:21.269Z,0.38
2022-12-17T06:09:20.576Z,0.38
2022-12-17T06:11:20.643Z,0.38
2022-12-17T06:13:22.030Z,0.38
2022-12-17T06:15:20.339Z,0.38
2022-12-17T06:17:21.211Z,0.38
2022-12-17T06:19:24.986Z,0.38
2022-12-17T06:21:20.410Z,0.38
2022-12-17T06:23:21.001Z,0.38
2022-12-17T06:25:21.098Z,0.38
2022-12-17T06:27:20.152Z,0.38
2022-12-17T06:29:20.444Z,0.38
2022-12-17T06:31:26.640Z,0.38
2022-12-17T06:33:20.193Z,0.38
2022-12-17T06:35:20.411Z,0.38
2022-12-17T06:37:29.024Z,0.38
2022-12-17T06:39:20.274Z,0.38
2022-12-17T06:41:20.586Z,0.38
2022-12-17T06:43:23.390Z,0.38
2022-12-17T06:45:21.268Z,0.38
2022-12-17T06:47:20.983Z,0.38
2022-12-17T06:49:20.482Z,0.38
2022-12-17T06:51:20.746Z,0.38
2022-12-17T06:53:20.904Z,0.38
2022-12-17T06:55:20.361Z,0.38
2022-12-17T06:57:20.559Z,0.38
2022-12-17T06:59:20.708Z,0.38
2022-12-17T07:01:24.340Z,0.38
2022-12-17T07:03:26.224Z,0.38
2022-12-17T07:05:20.948Z,0.38
2022-12-17T07:07:20.691Z,0.38
2022-12-17T07:09:20.228Z,0.38
2022-12-17T07:11:22.302Z,0.38
2022-12-17T07:13:21.160Z,0.38
2022-12-17T07:15:20.263Z,0.38
2022-12-17T07:17:21.196Z,0.38
2022-12-17T07:19:26.818Z,0.38
2022-12-17T07:21:22.070Z,0.38
2022-12-17T07:23:20.900Z,0.38
2022-12-17T07:25:20.274Z,0.38
2022-12-17T07:27:20.710Z,0.38
2022-12-17T07:29:20.952Z,0.38
2022-12-17T07:31:26.641Z,0.38
2022-12-17T07:33:20.464Z,0.38
2022-12-17T07:35:20.898Z,0.38
2022-12-17T07:37:20.781Z,0.38
2022-12-17T07:39:20.639Z,0.38
2022-12-17T07:41:20.673Z,0.38
2022-12-17T07:43:20.814Z,0.38
2022-12-17T07:45:20.194Z,0.38
2022-12-17T07:47:20.974Z,0.38
2022-12-17T07:49:25.720Z,0.38
2022-12-17T07:51:20.974Z,0.38
2022-12-17T07:53:20.274Z,0.38
2022-12-17T07:55:26.690Z,0.38
2022-12-17T07:57:20.860Z,0.38
2022-12-17T07:59:20.105Z,0.38
2022-12-17T08:01:24.521Z,0.38
2022-12-17T08:03:22.625Z,0.38
2022-12-17T08:05:20.621Z,0.38
2022-12-17T08:07:28.035Z,0.38
2022-12-17T08:09:20.543Z,0.38
2022-12-17T08:11:20.802Z,0.38
2022-12-17T08:13:25.513Z,0.38
2022-12-17T08:15:20.168Z,0.38
2022-12-17T08:17:21.543Z,0.38
2022-12-17T08:19:23.285Z,0.38
2022-12-17T08:21:20.997Z,0.38
2022-12-17T08:23:20.400Z,0.38
2022-12-17T08:25:20.687Z,0.38
2022-12-17T08:27:22.323Z,0.38
2022-12-17T08:29:57.537Z,0.38
2022-12-17T08:31:21.331Z,0.38
2022-12-17T08:33:20.304Z,0.38
2022-12-17T08:35:26.714Z,0.38
2022-12-17T08:37:21.043Z,0.38
2022-12-17T08:39:20.452Z,0.38
2022-12-17T08:41:20.670Z,0.38
2022-12-17T08:43:23.276Z,0.38
2022-12-17T08:45:20.421Z,0.38
2022-12-17T08:47:21.251Z,0.38
2022-12-17T08:49:23.112Z,0.38
2022-12-17T08:51:20.254Z,0.38
2022-12-17T08:53:20.779Z,0.38
2022-12-17T08:55:20.165Z,0.38
2022-12-17T08:57:31.577Z,0.38
2022-12-17T08:59:22.046Z,0.38
2022-12-17T09:01:25.106Z,0.38
2022-12-17T09:03:22.411Z,0.38
2022-12-17T09:05:20.727Z,0.38
2022-12-17T09:07:24.474Z,0.38
2022-12-17T09:09:20.465Z,0.38
2022-12-17T09:11:20.731Z,0.38
2022-12-17T09:13:27.052Z,0.38
2022-12-17T09:15:20.285Z,0.38
2022-12-17T09:17:21.367Z,0.38
2022-12-17T09:19:21.833Z,0.38
2022-12-17T09:21:25.783Z,0.38
2022-12-17T09:23:20.212Z,0.38
2022-12-17T09:25:20.556Z,0.38
2022-12-17T09:27:20.644Z,0.38
2022-12-17T09:29:20.293Z,0.38
2022-12-17T09:31:21.066Z,0.38
2022-12-17T09:33:20.736Z,0.38
2022-12-17T09:35:20.166Z,0.38
2022-12-17T09:37:25.219Z,0.38
2022-12-17T09:39:20.739Z,0.38
2022-12-17T09:41:21.604Z,0.38
2022-12-17T09:43:26.227Z,0.38
2022-12-17T09:45:20.986Z,0.29
2022-12-17T09:47:20.714Z,0.29
2022-12-17T09:49:28.381Z,0.29
2022-12-17T09:51:20.928Z,0.63
2022-12-17T09:53:20.394Z,0.63
2022-12-17T09:55:24.204Z,0.63
2022-12-17T09:57:20.795Z,0.84
2022-12-17T09:59:20.364Z,0.84
2022-12-17T10:01:24.233Z,0.84
2022-12-17T10:03:23.504Z,1.02
2022-12-17T10:05:20.303Z,1.02
2022-12-17T10:07:26.818Z,1.02
2022-12-17T10:09:21.604Z,1.18
2022-12-17T10:11:20.204Z,1.18
2022-12-17T10:13:20.775Z,1.18
2022-12-17T10:15:20.869Z,1.3
2022-12-17T10:17:23.616Z,1.3
2022-12-17T10:19:20.694Z,1.3
2022-12-17T10:21:20.203Z,1.39
2022-12-17T10:23:24.532Z,1.39
2022-12-17T10:25:26.149Z,1.39
2022-12-17T10:27:20.974Z,1.47
2022-12-17T10:29:20.540Z,1.47
2022-12-17T10:31:21.359Z,1.47
2022-12-17T10:33:21.008Z,1.54
2022-12-17T10:35:27.973Z,1.54
2022-12-17T10:37:20.807Z,1.54
2022-12-17T10:39:20.178Z,1.58
2022-12-17T10:41:20.560Z,1.58
2022-12-17T10:43:20.836Z,1.58
2022-12-17T10:45:21.010Z,1.63
2022-12-17T10:47:21.018Z,1.63
2022-12-17T10:49:23.075Z,1.63
2022-12-17T10:51:21.003Z,1.63
2022-12-17T10:53:20.352Z,1.63
2022-12-17T10:55:23.305Z,1.63
2022-12-17T10:57:20.831Z,1.63
2022-12-17T10:59:20.310Z,1.63
2022-12-17T11:01:31.225Z,1.63
2022-12-17T11:03:23.705Z,1.63
2022-12-17T11:05:20.544Z,1.63
2022-12-17T11:07:27.550Z,1.63
2022-12-17T11:09:21.272Z,1.63
2022-12-17T11:11:28.081Z,1.63
2022-12-17T11:13:27.780Z,1.63
2022-12-17T11:15:20.627Z,1.63
2022-12-17T11:17:21.256Z,1.63
2022-12-17T11:19:25.393Z,1.63
2022-12-17T11:21:20.498Z,1.63
2022-12-17T11:23:20.885Z,1.63
2022-12-17T11:25:25.093Z,1.63
2022-12-17T11:27:20.539Z,1.63
2022-12-17T11:29:20.796Z,1.63
2022-12-17T11:31:27.380Z,1.63
2022-12-17T11:33:20.092Z,1.63
2022-12-17T11:35:20.454Z,1.63
2022-12-17T11:37:31.708Z,1.63
2022-12-17T11:39:20.644Z,1.63
2022-12-17T11:41:20.454Z,1.63
2022-12-17T11:43:28.425Z,1.63
2022-12-17T11:45:20.212Z,1.63
2022-12-17T11:47:21.211Z,1.63
2022-12-17T11:49:21.604Z,1.63
2022-12-17T11:51:20.512Z,0.46
2022-12-17T11:53:25.974Z,0.46
2022-12-17T11:55:20.451Z,0.46
2022-12-17T11:57:21.426Z,0.83
2022-12-17T11:59:21.135Z,0.83
2022-12-17T12:01:23.889Z,0.83
2022-12-17T12:03:21.656Z,1.07
2022-12-17T12:05:21.590Z,1.07
2022-12-17T12:07:20.700Z,1.07
2022-12-17T12:09:21.669Z,1.07
2022-12-17T12:11:21.316Z,1.28
2022-12-17T12:13:20.651Z,1.28
2022-12-17T12:15:20.907Z,1.38
2022-12-17T12:17:28.737Z,1.39
2022-12-17T12:19:21.940Z,1.39
2022-12-17T12:21:21.052Z,1.39
2022-12-17T12:23:27.043Z,1.48
2022-12-17T12:25:20.958Z,1.48
2022-12-17T12:27:20.427Z,1.48
2022-12-17T12:29:21.459Z,1.55
2022-12-17T12:31:20.968Z,1.55
2022-12-17T12:33:21.681Z,1.6
2022-12-17T12:35:20.642Z,1.6
2022-12-17T12:37:20.682Z,1.6
2022-12-17T12:39:21.537Z,1.6
2022-12-17T12:41:20.585Z,1.65
2022-12-17T12:43:20.973Z,1.65
2022-12-17T12:45:23.778Z,1.65
2022-12-17T12:47:22.150Z,1.68
2022-12-17T12:49:21.316Z,1.68
2022-12-17T12:51:20.361Z,1.68
2022-12-17T12:53:20.439Z,1.71
2022-12-17T12:55:20.758Z,1.71
2022-12-17T12:57:20.097Z,1.71
2022-12-17T12:59:20.848Z,1.75
2022-12-17T13:01:26.929Z,1.75
2022-12-17T13:03:26.597Z,1.75
2022-12-17T13:05:20.424Z,1.77
2022-12-17T13:07:20.666Z,1.77
2022-12-17T13:09:21.656Z,1.77
2022-12-17T13:11:20.348Z,1.79
2022-12-17T13:13:20.621Z,1.79
2022-12-17T13:15:20.835Z,1.79
2022-12-17T13:17:21.595Z,1.79
2022-12-17T13:19:21.300Z,1.79
2022-12-17T13:21:20.567Z,1.79
2022-12-17T13:23:20.925Z,1.83
2022-12-17T13:25:20.890Z,1.83
2022-12-17T13:27:20.252Z,1.83
2022-12-17T13:29:23.243Z,1.85
2022-12-17T13:31:20.837Z,1.85
2022-12-17T13:33:20.456Z,1.85
2022-12-17T13:35:22.015Z,1.87
2022-12-17T13:37:20.603Z,1.87
2022-12-17T13:39:21.437Z,1.87
2022-12-17T13:41:21.956Z,1.88
2022-12-17T13:43:20.728Z,1.88
2022-12-17T13:45:20.961Z,1.88
2022-12-17T13:47:21.927Z,1.9
2022-12-17T13:49:21.447Z,1.9
2022-12-17T13:51:52.642Z,1.9
2022-12-17T13:53:25.326Z,1.9
2022-12-17T13:55:20.737Z,1.9
2022-12-17T13:57:20.979Z,1.9
2022-12-17T13:59:31.526Z,1.92
2022-12-17T14:01:23.807Z,1.92
2022-12-17T14:03:37.083Z,1.92
2022-12-17T14:05:30.742Z,1.94
2022-12-17T14:07:20.697Z,1.94
2022-12-17T14:09:21.228Z,1.94
2022-12-17T14:11:29.134Z,1.95
2022-12-17T14:13:20.762Z,1.95
2022-12-17T14:15:20.907Z,1.95
2022-12-17T14:17:25.093Z,1.97
2022-12-17T14:19:21.370Z,1.97
2022-12-17T14:21:20.711Z,1.98
2022-12-17T14:23:25.465Z,1.98
2022-12-17T14:25:20.340Z,1.98
2022-12-17T14:27:20.511Z,1.98
2022-12-17T14:29:24.240Z,1.98
2022-12-17T14:31:59.264Z,1.98
2022-12-17T14:33:20.602Z,1.98
2022-12-17T14:35:23.735Z,2
2022-12-17T14:37:21.485Z,2
2022-12-17T14:39:45.210Z,2
2022-12-17T14:41:20.817Z,2.01
2022-12-17T14:43:21.141Z,2.01
2022-12-17T14:45:27.570Z,2.01
2022-12-17T14:47:21.093Z,2.02
2022-12-17T14:49:21.666Z,2.02
2022-12-17T14:51:20.284Z,2.03
2022-12-17T14:53:20.701Z,2.03
2022-12-17T14:55:21.011Z,2.03
2022-12-17T14:57:20.386Z,2.03
2022-12-17T14:59:21.286Z,2.04
2022-12-17T15:01:23.891Z,2.04
2022-12-17T15:03:22.631Z,2.04
2022-12-17T15:05:20.772Z,2.05
2022-12-17T15:07:28.993Z,2.05
2022-12-17T15:09:21.511Z,2.05
2022-12-17T15:11:20.591Z,2.06
2022-12-17T15:13:20.788Z,2.06
2022-12-17T15:15:20.136Z,2.06
2022-12-17T15:17:21.266Z,2.07
2022-12-17T15:19:22.469Z,2.07
2022-12-17T15:21:20.233Z,2.08
2022-12-17T15:23:20.323Z,2.09
2022-12-17T15:25:20.886Z,2.09
2022-12-17T15:27:20.207Z,2.09
2022-12-17T15:29:21.113Z,2.1
2022-12-17T15:31:24.972Z,2.1
2022-12-17T15:33:21.089Z,2.1
2022-12-17T15:35:20.295Z,2.11
2022-12-17T15:37:25.489Z,2.11
2022-12-17T15:39:21.689Z,2.11
2022-12-17T15:41:20.803Z,2.11
2022-12-17T15:43:28.434Z,2.11
2022-12-17T15:45:19.966Z,2.12
2022-12-17T15:47:21.284Z,2.11
2022-12-17T15:49:24.756Z,2.11
2022-12-17T15:51:24.116Z,2.11
2022-12-17T15:53:20.477Z,2.11
2022-12-17T15:55:20.925Z,2.11
2022-12-17T15:57:28.171Z,2.11
2022-12-17T15:59:20.754Z,2.13
2022-12-17T16:01:23.223Z,2.13
2022-12-17T16:03:22.822Z,2.13
2022-12-17T16:05:30.787Z,2.13
2022-12-17T16:07:20.131Z,2.13
2022-12-17T16:09:21.205Z,2.13
2022-12-17T16:11:24.758Z,2.14
2022-12-17T16:13:20.953Z,2.14
2022-12-17T16:15:20.201Z,2.14
2022-12-17T16:17:23.678Z,2.16
2022-12-17T16:19:21.721Z,2.16
2022-12-17T16:21:20.418Z,2.16
2022-12-17T16:23:20.876Z,2.16
2022-12-17T16:25:20.315Z,2.16
2022-12-17T16:27:27.247Z,2.16
2022-12-17T16:29:20.515Z,2.16
2022-12-17T16:31:20.887Z,2.16
2022-12-17T16:33:22.028Z,2.16
2022-12-17T16:35:20.833Z,2.16
2022-12-17T16:37:20.265Z,2.16
2022-12-17T16:39:21.540Z,2.16
2022-12-17T16:41:21.292Z,2.16
2022-12-17T16:43:20.293Z,2.16
2022-12-17T16:45:20.719Z,2.16
2022-12-17T16:47:24.104Z,2.16
2022-12-17T16:49:21.076Z,2.16
2022-12-17T16:51:28.155Z,2.16
2022-12-17T16:53:20.930Z,2.16
2022-12-17T16:55:20.159Z,2.16
2022-12-17T16:57:25.476Z,2.16
2022-12-17T16:59:21.542Z,2.16
2022-12-17T17:01:23.501Z,2.16
2022-12-17T17:03:28.438Z,2.16
2022-12-17T17:05:21.027Z,2.16
2022-12-17T17:07:27.988Z,2.16
2022-12-17T17:09:21.116Z,2.16
2022-12-17T17:11:21.004Z,2.16
2022-12-17T17:13:20.151Z,2.16
2022-12-17T17:15:20.617Z,2.16
2022-12-17T17:17:54.085Z,2.16
2022-12-17T17:19:21.436Z,2.16
2022-12-17T17:21:20.544Z,2.16
2022-12-17T17:23:20.926Z,0.57
2022-12-17T17:25:50.099Z,0.57
2022-12-17T17:27:20.644Z,0.57
2022-12-17T17:29:21.478Z,0.93
2022-12-17T17:31:35.097Z,0.93
2022-12-17T17:33:30.269Z,0.93
2022-12-17T17:35:20.304Z,1.2
2022-12-17T17:37:23.015Z,1.2
2022-12-17T17:39:20.950Z,1.2
2022-12-17T17:41:20.617Z,1.4
2022-12-17T17:43:26.787Z,1.4
2022-12-17T17:45:20.386Z,1.4
2022-12-17T17:47:21.167Z,1.4
2022-12-17T17:49:21.295Z,1.4
2022-12-17T17:51:29.503Z,1.4
2022-12-17T17:53:29.790Z,1.61
2022-12-17T17:55:22.452Z,1.61
2022-12-17T17:57:20.496Z,1.61
2022-12-17T17:59:21.454Z,1.61
2022-12-17T18:01:23.646Z,1.61
2022-12-17T18:03:23.577Z,1.61
2022-12-17T18:05:20.841Z,1.61
2022-12-17T18:07:57.348Z,1.61
2022-12-17T18:09:21.149Z,1.61
2022-12-17T18:11:23.298Z,1.61
2022-12-17T18:13:20.585Z,1.61
2022-12-17T18:15:48.000Z,1.61
2022-12-17T18:17:21.824Z,1.61
2022-12-17T18:19:23.158Z,1.61
2022-12-17T18:21:20.546Z,1.61
2022-12-17T18:23:21.560Z,1.61
2022-12-17T18:25:21.256Z,1.61
2022-12-17T18:27:20.320Z,1.61
2022-12-17T18:29:21.209Z,1.61
2022-12-17T18:31:21.215Z,1.61
2022-12-17T18:33:20.407Z,1.61
2022-12-17T18:35:21.038Z,1.61
2022-12-17T18:37:20.689Z,1.61
2022-12-17T18:39:21.757Z,1.61
2022-12-17T18:41:27.832Z,1.61
2022-12-17T18:43:20.663Z,1.61
2022-12-17T18:45:20.209Z,1.61
2022-12-17T18:47:21.448Z,1.61
2022-12-17T18:49:21.235Z,1.61
2022-12-17T18:51:25.453Z,1.61
2022-12-17T18:53:25.122Z,1.61
2022-12-17T18:55:20.758Z,1.61
2022-12-17T18:57:58.656Z,1.61
2022-12-17T18:59:27.095Z,1.61
2022-12-17T19:01:27.534Z,0.54
2022-12-17T19:03:22.198Z,0.54
2022-12-17T19:05:20.101Z,0.54
2022-12-17T19:07:20.550Z,0.54
2022-12-17T19:09:21.340Z,0.54
2022-12-17T19:11:21.096Z,0.54
2022-12-17T19:13:20.414Z,0.54
2022-12-17T19:15:20.795Z,0.54
2022-12-17T19:17:21.556Z,0.54
2022-12-17T19:19:20.817Z,0.54
2022-12-17T19:21:20.325Z,0.54
2022-12-17T19:23:20.914Z,0.54
2022-12-17T19:25:20.099Z,0.54
2022-12-17T19:27:20.417Z,0.54
2022-12-17T19:29:21.511Z,0.54
2022-12-17T19:31:20.707Z,0.54
2022-12-17T19:33:21.005Z,0.54
2022-12-17T19:35:21.004Z,0.54
2022-12-17T19:37:25.516Z,0.54
2022-12-17T19:39:21.064Z,0.54
2022-12-17T19:41:20.998Z,0.54
2022-12-17T19:43:22.922Z,0.54
2022-12-17T19:45:21.076Z,0.54
2022-12-17T19:47:21.302Z,0.54
2022-12-17T19:49:23.017Z,0.54
2022-12-17T19:51:20.445Z,0.54
2022-12-17T19:53:20.863Z,0.54
2022-12-17T19:55:27.916Z,0.54
2022-12-17T19:57:20.571Z,0.54
2022-12-17T19:59:21.199Z,0.54
2022-12-17T20:01:22.888Z,0.54
2022-12-17T20:03:29.818Z,0.54
2022-12-17T20:05:19.924Z,0.54
2022-12-17T20:07:20.437Z,0.54
2022-12-17T20:09:24.384Z,0.54
2022-12-17T20:11:20.981Z,0.54
2022-12-17T20:13:20.281Z,0.54
2022-12-17T20:15:20.628Z,0.54
2022-12-17T20:17:21.871Z,0.54
2022-12-17T20:19:20.720Z,0.54
2022-12-17T20:21:20.402Z,0.54
2022-12-17T20:23:20.866Z,0.54
2022-12-17T20:25:27.831Z,0.54
2022-12-17T20:27:20.286Z,0.54
2022-12-17T20:29:21.172Z,0.54
2022-12-17T20:31:20.850Z,0.54
2022-12-17T20:33:20.762Z,0.54
2022-12-17T20:35:20.740Z,0.54
2022-12-17T20:37:20.915Z,0.54
2022-12-17T20:39:26.257Z,0.54
2022-12-17T20:41:20.479Z,0.54
2022-12-17T20:43:20.595Z,0.54
2022-12-17T20:45:27.131Z,0.54
2022-12-17T20:47:21.573Z,0.54
2022-12-17T20:49:20.657Z,0.54
2022-12-17T20:51:20.667Z,0.54
2022-12-17T20:53:20.372Z,0.54
2022-12-17T20:55:20.684Z,0.54
2022-12-17T20:57:20.880Z,0.54
2022-12-17T20:59:21.512Z,0.54
2022-12-17T21:01:25.841Z,0.54
2022-12-17T21:03:22.468Z,0.54
2022-12-17T21:05:20.377Z,0.54
2022-12-17T21:07:20.710Z,0.54
2022-12-17T21:09:24.494Z,0.54
2022-12-17T21:11:20.687Z,0.54
2022-12-17T21:13:20.621Z,0.54
2022-12-17T21:15:30.017Z,0.54
2022-12-17T21:17:21.368Z,0.54
2022-12-17T21:19:21.080Z,0.54
2022-12-17T21:21:27.931Z,0.54
2022-12-17T21:23:20.629Z,0.54
2022-12-17T21:25:21.179Z,0.54
2022-12-17T21:27:26.306Z,0.54
2022-12-17T21:29:20.860Z,0.54
2022-12-17T21:31:27.151Z,0.54
2022-12-17T21:33:27.812Z,0.54
2022-12-17T21:35:21.714Z,0.54
2022-12-17T21:37:32.096Z,0.54
2022-12-17T21:39:21.280Z,0.54
2022-12-17T21:41:21.647Z,0.54
2022-12-17T21:43:20.697Z,0.54
2022-12-17T21:45:22.232Z,0.54
2022-12-17T21:47:24.347Z,0.54
2022-12-17T21:49:28.003Z,0.54
2022-12-17T21:51:21.539Z,0.54
2022-12-17T21:53:20.804Z,0.54
2022-12-17T21:55:28.071Z,0.54
2022-12-17T21:57:21.197Z,0.54
2022-12-17T21:59:21.243Z,0.54
2022-12-17T22:01:30.969Z,0.54
2022-12-17T22:03:22.765Z,0.54
2022-12-17T22:05:27.555Z,0.54
2022-12-17T22:07:54.929Z,0.54
2022-12-17T22:10:17.755Z,0.54
2022-12-17T22:12:10.672Z,0.54
2022-12-17T22:13:20.191Z,0.54
2022-12-17T22:15:34.473Z,0.54
2022-12-17T22:17:22.006Z,0.54
2022-12-17T22:19:22.440Z,0.54
2022-12-17T22:21:21.783Z,0.54
2022-12-17T22:23:22.823Z,0.54
2022-12-17T22:25:30.390Z,0.54
2022-12-17T22:27:21.077Z,0.54
2022-12-17T22:29:22.419Z,0.54
2022-12-17T22:31:24.911Z,0.54
2022-12-17T22:36:01.396Z,0.54
2022-12-17T22:47:20.945Z,0.54
2022-12-17T22:49:22.798Z,0.54
2022-12-17T22:52:04.111Z,0.54
2022-12-17T22:53:24.570Z,0.54
2022-12-17T22:55:24.463Z,0.54
2022-12-17T22:58:34.601Z,0.54
2022-12-17T23:01:34.339Z,0.54
2022-12-17T23:03:22.225Z,0.54
2022-12-17T23:05:21.385Z,0.54
2022-12-17T23:07:20.284Z,0.54
2022-12-17T23:09:20.782Z,0.54
2022-12-17T23:11:21.107Z,0.54
2022-12-17T23:13:20.296Z,0.54
2022-12-17T23:15:20.469Z,0.54
2022-12-17T23:17:21.467Z,0.54
2022-12-17T23:19:20.295Z,0.54
2022-12-17T23:21:20.740Z,0.54
2022-12-17T23:23:26.367Z,0.54
2022-12-17T23:25:21.111Z,0.54
2022-12-17T23:27:20.367Z,0.54
2022-12-17T23:29:20.431Z,0.54
2022-12-17T23:31:21.461Z,0.54
2022-12-17T23:33:20.397Z,0.54
2022-12-17T23:35:20.932Z,0.54
2022-12-17T23:37:20.801Z,0.54
2022-12-17T23:39:20.732Z,0.54
2022-12-17T23:41:20.449Z,0.54
2022-12-17T23:43:28.566Z,0.54
2022-12-17T23:45:20.988Z,0.54
2022-12-17T23:47:20.935Z,0.54
2022-12-17T23:49:24.681Z,0.54
2022-12-17T23:51:20.842Z,0.54
2022-12-17T23:53:20.250Z,0.54
2022-12-17T23:55:20.966Z,0.54
2022-12-17T23:57:21.061Z,0.54
2022-12-17T23:59:20.591Z,0.54
